• Join FlightAware (Why Join?)
  • Login
  • US Flag 
01:33PM EDT


 

Airport Tracker/Info


-or-


 

Live Flight TrackerFlight Track Log ✈ N680AN ✈ 26-Apr-2013 ✈ KBOS - KDFW

Flight Track Log - Related Links

Times and Time Zones

All times are in EDT time to prevent confusion due to time zone crossing. See the N680AN flight status page for this flight to view local times or setup timezone preferences in your user account.

Time Position Orientation Groundspeed Altitude Reporting Facility
EDT Latitude Longitude Course Direction KTS MPH feet Rate Location/Type
04:58PM 42.3667 -70.9833 278° West 156 180 600  Level KA90
05:00PM 42.3571 -70.7262 173° South  Level FlightAware Approximate
05:00PM 42.3869 -70.8436 79° East 245 282 4,700  Level Boston Center
05:01PM 42.2676 -70.7653 228° Southwest  Level FlightAware Approximate
05:01PM 42.3750 -70.7369 99° East 245 282 7,600  Level Boston Center
05:02PM 42.2059 -70.8808 240° Southwest  Level FlightAware Approximate
05:02PM 42.2997 -70.7222 172° South 198 228 10,100  Level Boston Center
05:03PM 42.1882 -71.0152 278° West  Level FlightAware Approximate
05:03PM 42.2383 -70.7883 219° Southwest 204 235 11,700  Level Boston Center
05:04PM 42.2336 -70.8950 267° West 253 291 14,100 2,400 Climbing Boston Center
05:05PM 42.2292 -71.0297 267° West 309 356 16,600 1,980 Climbing Boston Center
05:06PM 42.2261 -71.1392 268° West 333 383 18,100 1,740 Climbing Boston Center
05:07PM 42.2236 -71.2878 269° West 352 405 20,100 1,800 Climbing Boston Center
05:08PM 42.2208 -71.4253 268° West 363 418 21,800 1,740 Climbing Boston Center
05:09PM 42.2156 -71.5403 266° West 374 430 23,600 1,800 Climbing Boston Center
05:10PM 42.2061 -71.7003 265° West 387 445 25,800 1,980 Climbing Boston Center
05:11PM 42.1969 -71.8797 266° West 398 458 28,000 1,860 Climbing Boston Center
05:12PM 42.1914 -72.0394 267° West 415 478 29,600 1,680 Climbing Boston Center
05:13PM 42.1856 -72.1908 267° West 415 478 31,800 2,100 Climbing Boston Center
05:14PM 42.1775 -72.3728 267° West 415 478 34,300 1,920 Climbing Boston Center
05:15PM 42.1692 -72.5242 266° West 415 478 35,700 960 Climbing Boston Center
05:16PM 42.1356 -72.6697 253° West 410 472 36,300 600 Climbing Boston Center
05:17PM 42.0558 -72.8064 232° Southwest 408 470 37,000 300 Climbing Boston Center
05:18PM 41.9806 -72.9289 230° Southwest 420 483 37,000  Level Boston Center
05:19PM 41.9131 -73.0456 232° Southwest 441 507 37,000  Level Boston Center
05:20PM 41.8353 -73.1700 230° Southwest 441 507 37,000  Level Boston Center
05:21PM 41.7617 -73.2889 230° Southwest 441 507 37,000  Level Boston Center
05:23PM 41.5778 -73.5914 231° Southwest 430 495 37,000  Level New York Center
05:24PM 41.4997 -73.7156 230° Southwest 424 488 37,000  Level New York Center
05:25PM 41.4258 -73.8394 232° Southwest 429 494 37,000  Level New York Center
05:26PM 41.3539 -73.9606 232° Southwest 430 495 37,000  Level New York Center
05:27PM 41.2797 -74.0842 231° Southwest 430 495 37,000  Level New York Center
05:28PM 41.2056 -74.1989 229° Southwest 430 495 37,000  Level New York Center
05:29PM 41.1339 -74.3000 227° Southwest 425 489 37,000  Level New York Center
05:30PM 41.0594 -74.4172 230° Southwest 420 483 37,000 360 Level New York Center
05:31PM 40.9872 -74.5314 230° Southwest 420 483 37,800 480 Climbing New York Center
05:32PM 40.9125 -74.6481 230° Southwest 420 483 38,000 60 Climbing New York Center
05:33PM 40.8336 -74.7669 229° Southwest 420 483 38,000  Level New York Center
05:34PM 40.7647 -74.8892 233° Southwest 420 483 38,000  Level New York Center
05:35PM 40.7058 -75.0225 240° Southwest 420 483 38,000  Level New York Center
05:36PM 40.6489 -75.1528 240° Southwest 420 483 38,000  Level New York Center
05:37PM 40.5900 -75.2831 239° Southwest 420 483 38,000  Level New York Center
05:38PM 40.5283 -75.4183 239° Southwest 420 483 38,000  Level New York Center
05:39PM 40.4692 -75.5478 239° Southwest 420 483 38,000  Level New York Center
05:40PM 40.4075 -75.6800 239° Southwest 420 483 38,000  Level New York Center
05:41PM 40.3478 -75.8119 239° Southwest 420 483 38,000  Level New York Center
05:42PM 40.2836 -75.9406 237° Southwest 426 490 38,000  Level New York Center
05:43PM 40.2239 -76.0667 238° Southwest 426 490 38,000  Level New York Center
05:44PM 40.1658 -76.1981 240° Southwest 421 484 38,000  Level New York Center
05:45PM 40.1036 -76.3261 238° Southwest 416 479 38,000  Level New York Center
05:46PM 40.0433 -76.4517 238° Southwest 411 473 38,000  Level New York Center
05:47PM 39.9872 -76.5769 240° Southwest 411 473 38,000  Level New York Center
05:50PM 39.8572 -76.8456 238° Southwest 404 465 38,000  Level Washington Center
05:51PM 39.7994 -76.9661 238° Southwest 404 465 38,000  Level Washington Center
05:52PM 39.7439 -77.0919 240° Southwest 404 465 38,000  Level Washington Center
05:53PM 39.6861 -77.2119 238° Southwest 404 465 38,000  Level Washington Center
05:54PM 39.6303 -77.3319 239° Southwest 399 459 38,000  Level Washington Center
05:55PM 39.5742 -77.4572 240° Southwest 399 459 38,000  Level Washington Center
05:56PM 39.5161 -77.5794 238° Southwest 399 459 38,000  Level Washington Center
05:57PM 39.4556 -77.7014 237° Southwest 399 459 38,000  Level Washington Center
05:58PM 39.3972 -77.8233 238° Southwest 399 459 38,000  Level Washington Center
05:59PM 39.3469 -77.9481 242° Southwest 399 459 38,000  Level Washington Center
06:00PM 39.2986 -78.0697 243° Southwest 393 452 38,000  Level Washington Center
06:01PM 39.2500 -78.1914 243° Southwest 387 445 38,000  Level Washington Center
06:02PM 39.2017 -78.3128 243° Southwest 387 445 38,000  Level Washington Center
06:03PM 39.1508 -78.4394 243° Southwest 387 445 38,000  Level Washington Center
06:04PM 39.1019 -78.5633 243° Southwest 392 451 38,000  Level Washington Center
06:05PM 39.0550 -78.6844 244° Southwest 392 451 38,000  Level Washington Center
06:06PM 39.0017 -78.8103 241° Southwest 392 451 38,000  Level Washington Center
06:07PM 38.9503 -78.9336 242° Southwest 392 451 38,000  Level Washington Center
06:08PM 38.9011 -79.0567 243° Southwest 392 451 38,000  Level Washington Center
06:09PM 38.8517 -79.1769 242° Southwest 392 451 38,000  Level Washington Center
06:10PM 38.8247 -79.3036 255° West 379 436 38,000  Level Washington Center
06:11PM 38.8022 -79.4303 257° West 368 423 38,000  Level Washington Center
06:12PM 38.7767 -79.5756 257° West 368 423 38,000  Level Washington Center
06:13PM 38.7536 -79.6992 257° West 373 429 38,000  Level Washington Center
06:14PM 38.7328 -79.8206 258° West 368 423 38,000  Level Washington Center
06:15PM 38.7103 -79.9258 255° West 358 412 38,000  Level Washington Center
06:16PM 38.6717 -80.1206 256° West 347 399 38,000  Level Indianapolis Center
06:17PM 38.6494 -80.2425 257° West 351 404 38,000  Level Indianapolis Center
06:18PM 38.6264 -80.3633 256° West 350 403 38,000  Level Indianapolis Center
06:19PM 38.6039 -80.4850 257° West 351 404 38,000  Level Indianapolis Center
06:20PM 38.5789 -80.6089 256° West 358 412 38,000  Level Indianapolis Center
06:21PM 38.5506 -80.7572 256° West 357 411 38,000  Level Indianapolis Center
06:22PM 38.5269 -80.8800 256° West 356 410 38,000  Level Indianapolis Center
06:23PM 38.5036 -81.0011 256° West 353 406 38,000  Level Indianapolis Center
06:24PM 38.4797 -81.1228 256° West 352 405 38,000  Level Indianapolis Center
06:26PM 38.4558 -81.2433 256° West 349 402 38,000  Level Indianapolis Center
06:27PM 38.4319 -81.3639 256° West 348 400 38,000  Level Indianapolis Center
06:28PM 38.4083 -81.4844 256° West 348 400 38,000  Level Indianapolis Center
06:29PM 38.3831 -81.6050 255° West 348 400 38,000  Level Indianapolis Center
06:30PM 38.3589 -81.7244 256° West 346 398 38,000  Level Indianapolis Center
06:31PM 38.3242 -81.8667 253° West 350 403 38,000  Level Indianapolis Center
06:32PM 38.2911 -81.9825 250° West 347 399 38,000  Level Indianapolis Center
06:33PM 38.2583 -82.0994 250° West 349 402 38,000  Level Indianapolis Center
06:34PM 38.2256 -82.2147 250° West 347 399 38,000  Level Indianapolis Center
06:35PM 38.1925 -82.3294 250° West 347 399 38,000  Level Indianapolis Center
06:36PM 38.1592 -82.4433 250° West 346 398 38,000  Level Indianapolis Center
06:37PM 38.1244 -82.5661 250° West 343 395 38,000  Level Indianapolis Center
06:38PM 38.0889 -82.6986 251° West 341 392 38,000  Level Indianapolis Center
06:39PM 38.0647 -82.8128 255° West 335 386 38,000  Level Indianapolis Center
06:40PM 38.0414 -82.9286 256° West 338 389 38,000  Level Indianapolis Center
06:41PM 38.0178 -83.0453 256° West 340 391 38,000  Level Indianapolis Center
06:42PM 37.9947 -83.1597 256° West 337 388 38,000  Level Indianapolis Center
06:43PM 37.9711 -83.2778 256° West 342 394 38,000  Level Indianapolis Center
06:44PM 37.9431 -83.4153 256° West 347 399 38,000  Level Indianapolis Center
06:45PM 37.9192 -83.5347 256° West 349 402 38,000  Level Indianapolis Center
06:46PM 37.8947 -83.6544 256° West 351 404 38,000  Level Indianapolis Center
06:48PM 37.8583 -83.8249 255° West  Level FlightAware Approximate
06:48PM 37.8447 -83.8922 255° West 350 403 38,000  Level Indianapolis Center
06:49PM 37.8150 -84.0303 255° West 349 402 38,000  Level Indianapolis Center
06:50PM 37.7894 -84.1483 255° West 350 403 38,000  Level Indianapolis Center
06:51PM 37.7636 -84.2678 255° West 351 404 38,000 360 Level Indianapolis Center
06:52PM 37.7378 -84.3886 255° West 357 411 38,800 720 Climbing Indianapolis Center
06:53PM 37.7117 -84.5086 255° West 355 409 39,600 540 Climbing Indianapolis Center
06:54PM 37.6811 -84.6503 255° West 359 413 40,000 180 Climbing Indianapolis Center
06:55PM 37.6542 -84.7728 255° West 362 417 40,000  Level Indianapolis Center
06:57PM 37.6264 -84.8972 254° West 367 422 40,000  Level Indianapolis Center
06:58PM 37.5994 -85.0217 255° West 368 423 40,000  Level Indianapolis Center
06:59PM 37.5719 -85.1450 254° West 367 422 40,000  Level Indianapolis Center
07:00PM 37.5442 -85.2683 254° West 367 422 40,000  Level Indianapolis Center
07:01PM 37.5111 -85.4092 254° West 361 415 40,000  Level Indianapolis Center
07:02PM 37.4850 -85.5311 255° West 357 411 40,000  Level Indianapolis Center
07:03PM 37.4567 -85.6522 254° West 357 411 40,000  Level Indianapolis Center
07:04PM 37.4294 -85.7722 254° West 356 410 40,000  Level Indianapolis Center
07:05PM 37.4017 -85.8894 253° West 354 407 40,000  Level Indianapolis Center
07:06PM 37.3742 -86.0097 254° West 356 410 40,000  Level Indianapolis Center
07:07PM 37.3472 -86.1292 254° West 354 407 40,000  Level Indianapolis Center
07:08PM 37.3144 -86.2706 254° West 367 422 40,000  Level Memphis Center
07:09PM 37.2872 -86.3892 254° West 367 422 40,000  Level Memphis Center
07:10PM 37.2597 -86.5131 254° West 367 422 40,000  Level Memphis Center
07:11PM 37.2300 -86.6317 253° West 367 422 40,000  Level Memphis Center
07:12PM 37.2022 -86.7503 254° West 367 422 40,000  Level Memphis Center
07:13PM 37.1764 -86.8581 253° West 367 422 40,000  Level Memphis Center
07:14PM 37.1483 -86.9817 254° West 367 422 40,000  Level Memphis Center
07:15PM 37.1183 -87.1025 253° West 367 422 40,000  Level Memphis Center
07:16PM 37.0881 -87.2233 253° West 367 422 40,000  Level Memphis Center
07:17PM 37.0578 -87.3442 253° West 367 422 40,000  Level Memphis Center
07:18PM 37.0294 -87.4647 254° West 367 422 40,000  Level Memphis Center
07:19PM 36.9989 -87.5881 253° West 373 429 40,000  Level Memphis Center
07:20PM 36.9703 -87.7083 253° West 365 420 40,000  Level Memphis Center
07:21PM 36.9394 -87.8339 253° West 370 426 40,000  Level Memphis Center
07:22PM 36.9047 -87.9675 252° West 370 426 40,000  Level Memphis Center
07:23PM 36.8736 -88.0878 252° West 370 426 40,000  Level Memphis Center
07:24PM 36.8506 -88.1944 255° West 363 418 40,000  Level Memphis Center
07:25PM 36.8192 -88.3147 252° West 363 418 40,000  Level Memphis Center
07:26PM 36.7897 -88.4344 253° West 368 423 40,000  Level Memphis Center
07:27PM 36.7583 -88.5544 252° West 368 423 40,000  Level Memphis Center
07:28PM 36.7244 -88.6744 251° West 368 423 40,000  Level Memphis Center
07:29PM 36.6969 -88.7939 254° West 368 423 40,000  Level Memphis Center
07:30PM 36.6650 -88.9136 252° West 368 423 40,000  Level Memphis Center
07:31PM 36.6350 -89.0356 253° West 368 423 40,000  Level Memphis Center
07:32PM 36.6050 -89.1575 253° West 368 423 40,000  Level Memphis Center
07:33PM 36.5728 -89.2822 252° West 373 429 40,000  Level Memphis Center
07:34PM 36.5386 -89.4272 254° West 391 450 40,000  Level Memphis Center
07:35PM 36.5000 -89.5517 249° West 391 450 40,000  Level Memphis Center
07:36PM 36.4653 -89.6783 251° West 391 450 40,000  Level Memphis Center
07:37PM 36.4306 -89.8025 251° West 386 444 40,000  Level Memphis Center
07:38PM 36.3956 -89.9264 251° West 386 444 40,000  Level Memphis Center
07:39PM 36.3625 -90.0503 252° West 386 444 40,000  Level Memphis Center
07:40PM 36.3419 -90.1767 259° West 379 436 40,000  Level Memphis Center
07:41PM 36.3211 -90.3056 259° West 379 436 40,000  Level Memphis Center
07:42PM 36.3044 -90.4342 261° West 379 436 40,000  Level Memphis Center
07:43PM 36.2878 -90.5578 261° West 373 429 40,000  Level Memphis Center
07:44PM 36.2667 -90.6839 258° West 373 429 40,000  Level Memphis Center
07:45PM 36.2350 -90.8072 252° West 373 429 40,000  Level Memphis Center
07:46PM 36.1992 -90.9253 249° West 378 435 40,000  Level Memphis Center
07:47PM 36.1650 -91.0461 251° West 378 435 40,000  Level Memphis Center
07:48PM 36.1247 -91.1639 247° West 378 435 40,000  Level Memphis Center
07:49PM 36.0906 -91.2867 251° West 378 435 40,000  Level Memphis Center
07:50PM 36.0500 -91.4069 247° West 378 435 40,000  Level Memphis Center
07:51PM 36.0175 -91.5322 252° West 383 441 40,000  Level Memphis Center
07:52PM 35.9767 -91.6547 248° West 388 447 40,000  Level Memphis Center
07:53PM 35.9442 -91.7747 252° West 388 447 40,000  Level Memphis Center
07:54PM 35.9072 -91.8997 250° West 388 447 40,000  Level Memphis Center
07:55PM 35.8681 -92.0219 248° West 388 447 40,000  Level Memphis Center
07:56PM 35.8311 -92.1467 250° West 388 447 40,000  Level Memphis Center
07:57PM 35.7917 -92.2661 248° West 388 447 40,000  Level Memphis Center
07:58PM 35.7542 -92.3906 250° West 388 447 40,000  Level Memphis Center
07:59PM 35.7167 -92.5125 249° West 388 447 40,000  Level Memphis Center
08:00PM 35.6836 -92.6214 250° West 388 447 40,000  Level Memphis Center
08:01PM 35.6414 -92.7583 249° West 388 447 40,000  Level Memphis Center
08:02PM 35.6036 -92.8772 249° West 395 455 40,000  Level Memphis Center
08:03PM 35.5678 -93.0011 250° West 389 448 40,000  Level Memphis Center
08:04PM 35.5272 -93.1275 249° West 390 449 40,000  Level Memphis Center
08:05PM 35.4892 -93.2511 249° West 390 449 40,000  Level Memphis Center
08:06PM 35.4508 -93.3722 249° West 390 449 40,000  Level Memphis Center
08:07PM 35.4128 -93.4753 246° West 385 443 40,000  Level Memphis Center
08:08PM 35.3742 -93.5961 249° West 385 443 40,000  Level Memphis Center
08:09PM 35.3356 -93.7167 249° West 391 450 40,000  Level Memphis Center
08:10PM 35.2969 -93.8372 249° West 391 450 40,000  Level Memphis Center
08:11PM 35.2558 -93.9575 247° West 391 450 40,000  Level Memphis Center
08:12PM 35.2167 -94.0806 249° West 391 450 40,000  Level Memphis Center
08:13PM 35.1778 -94.2006 248° West 391 450 40,000  Level Memphis Center
08:14PM 35.1386 -94.3181 248° West 391 450 40,000  Level Memphis Center
08:16PM 35.0550 -94.5678 248° West 408 470 40,000  Level Fort Worth Center
08:17PM 35.0094 -94.6836 244° Southwest 379 436 40,000  Level Fort Worth Center
08:18PM 34.9281 -94.7722 222° Southwest 395 455 40,000  Level Fort Worth Center
08:19PM 34.8464 -94.8633 222° Southwest 394 453 40,000  Level Fort Worth Center
08:20PM 34.7669 -94.9517 222° Southwest 394 453 40,000  Level Fort Worth Center
08:21PM 34.6786 -95.0322 217° Southwest 394 453 40,000 -360 Level Fort Worth Center
08:22PM 34.5642 -95.0406 183° South 401 461 39,300 -900 Descending Fort Worth Center
08:23PM 34.4503 -94.9783 156° South 408 470 38,300 -960 Descending Fort Worth Center
08:24PM 34.3319 -94.9111 155° Southeast 432 497 37,400 -960 Descending Fort Worth Center
08:25PM 34.2106 -94.8819 169° South 442 509 36,400 -1,200 Descending Fort Worth Center
08:26PM 34.1117 -94.9500 210° Southwest 389 448 35,000 -1,500 Descending Fort Worth Center
08:27PM 34.0575 -95.0644 240° Southwest 366 421 33,400 -1,320 Descending Fort Worth Center
08:28PM 34.0053 -95.1811 242° Southwest 379 436 32,400 -1,020 Descending Fort Worth Center
08:29PM 33.9447 -95.2953 237° Southwest 392 451 31,400 -1,080 Descending Fort Worth Center
08:30PM 33.8883 -95.4119 240° Southwest 402 463 30,300 -1,800 Descending Fort Worth Center
08:31PM 33.8275 -95.5308 238° Southwest 412 474 27,800 -2,520 Descending Fort Worth Center
08:32PM 33.7747 -95.6442 241° Southwest 406 467 25,300 -2,700 Descending Fort Worth Center
08:33PM 33.7200 -95.7528 239° Southwest 401 461 22,400 -2,580 Descending Fort Worth Center
08:34PM 33.6692 -95.8586 240° Southwest 389 448 20,200 -2,400 Descending Fort Worth Center
08:35PM 33.6181 -95.9592 239° Southwest 368 423 17,600 -2,400 Descending Fort Worth Center
08:36PM 33.5692 -96.0572 239° Southwest 350 403 15,500 -1,920 Descending Fort Worth Center
08:37PM 33.5242 -96.1478 239° Southwest 330 380 13,800 -2,040 Descending Fort Worth Center
08:38PM 33.4814 -96.2378 240° Southwest 323 372 11,500 -1,380 Descending Fort Worth Center
08:39PM 33.4381 -96.3206 238° Southwest 307 353 11,100 -240 Descending Fort Worth Center
08:40PM 33.4014 -96.3983 241° Southwest 287 330 11,100 -300 Level Fort Worth Center
08:41PM 33.3475 -96.4611 224° Southwest 274 315 10,600 -1,020 Descending Fort Worth Center
08:42PM 33.2978 -96.5261 228° Southwest 269 310 9,100 -1,440 Descending Fort Worth Center
08:43PM 33.2881 -96.6108 262° West 252 290 7,800 -900 Descending Fort Worth Center
08:44PM 33.2822 -96.6878 265° West 246 283 7,300 -720 Descending Fort Worth Center
08:45PM 33.2847 -96.7600 272° West 227 261 6,400 -900 Descending Fort Worth Center
08:46PM 33.2850 -96.8294 270° West 216 249 5,600 -660 Descending Fort Worth Center
08:47PM 33.2833 -96.8992 268° West 216 249 5,100 -300 Descending Fort Worth Center
08:48PM 33.2564 -96.9564 241° Southwest 205 236 5,100  Level Fort Worth Center
08:49PM 33.2208 -96.9864 215° Southwest 174 200 5,100  Level Fort Worth Center
08:50PM 33.1833 -97.0039 201° Southwest 159 183 5,100 -60 Level Fort Worth Center
08:51PM 33.1417 -97.0117 189° South 152 175 5,000 -600 Descending Fort Worth Center
08:52PM 33.0667 -97.0167 183° South 153 176 3,700 -840 Descending Dallas / Fort Worth TRACON